Map

Track Data

SID SEASON NUMBER BASIN SUBBASIN NAME ISO_TIME NATURE LAT LON WMO_WIND WMO_PRES WMO_AGENCY TRACK_TYPE DIST2LAND LANDFALL IFLAG USA_AGENCY USA_ATCF_ID USA_LAT USA_LON USA_RECORD USA_STATUS USA_WIND USA_PRES USA_SSHS USA_R34_NE USA_R34_SE USA_R34_SW USA_R34_NW USA_R50_NE USA_R50_SE USA_R50_SW USA_R50_NW USA_R64_NE USA_R64_SE USA_R64_SW USA_R64_NW USA_POCI USA_ROCI USA_RMW USA_EYE TOKYO_LAT TOKYO_LON TOKYO_GRADE TOKYO_WIND TOKYO_PRES TOKYO_R50_DIR TOKYO_R50_LONG TOKYO_R50_SHORT TOKYO_R30_DIR TOKYO_R30_LONG TOKYO_R30_SHORT TOKYO_LAND CMA_LAT CMA_LON CMA_CAT CMA_WIND CMA_PRES HKO_LAT HKO_LON HKO_CAT HKO_WIND HKO_PRES NEWDELHI_LAT NEWDELHI_LON NEWDELHI_GRADE NEWDELHI_WIND NEWDELHI_PRES NEWDELHI_CI NEWDELHI_DP NEWDELHI_POCI REUNION_LAT REUNION_LON REUNION_TYPE REUNION_WIND REUNION_PRES REUNION_TNUM REUNION_CI REUNION_RMW REUNION_R34_NE REUNION_R34_SE REUNION_R34_SW REUNION_R34_NW REUNION_R50_NE REUNION_R50_SE REUNION_R50_SW REUNION_R50_NW REUNION_R64_NE REUNION_R64_SE REUNION_R64_SW REUNION_R64_NW BOM_LAT BOM_LON BOM_TYPE BOM_WIND BOM_PRES BOM_TNUM BOM_CI BOM_RMW BOM_R34_NE BOM_R34_SE BOM_R34_SW BOM_R34_NW BOM_R50_NE BOM_R50_SE BOM_R50_SW BOM_R50_NW BOM_R64_NE BOM_R64_SE BOM_R64_SW BOM_R64_NW BOM_ROCI BOM_POCI BOM_EYE BOM_POS_METHOD BOM_PRES_METHOD NADI_LAT NADI_LON NADI_CAT NADI_WIND NADI_PRES WELLINGTON_LAT WELLINGTON_LON WELLINGTON_WIND WELLINGTON_PRES DS824_LAT DS824_LON DS824_STAGE DS824_WIND DS824_PRES TD9636_LAT TD9636_LON TD9636_STAGE TD9636_WIND TD9636_PRES TD9635_LAT TD9635_LON TD9635_WIND TD9635_PRES TD9635_ROCI NEUMANN_LAT NEUMANN_LON NEUMANN_CLASS NEUMANN_WIND NEUMANN_PRES MLC_LAT MLC_LON MLC_CLASS MLC_WIND MLC_PRES USA_GUST BOM_GUST BOM_GUST_PER REUNION_GUST REUNION_GUST_PER USA_SEAHGT USA_SEARAD_NE USA_SEARAD_SE USA_SEARAD_SW USA_SEARAD_NW STORM_SPEED STORM_DIR
1946013S10163 1946 3 SP MM NOT_NAMED 1946-01-13 00:00:00 TS -10.3000 163.300 main 118 118 O________OO___ jtwc_sh SH061946 -10.3000 163.300 -1 -10.3000 163.300 TC -10.3000 163.300 2 22 106
1946013S10163 1946 3 SP MM NOT_NAMED 1946-01-13 03:00:00 TS -10.6056 164.365 main 229 229 P________PP___ SH061946 -10.6081 164.357 -1 -10.6081 164.357 TC -10.6006 164.380 2 22 106
1946013S10163 1946 3 SP MM NOT_NAMED 1946-01-13 06:00:00 TS -10.8965 165.410 main 338 338 O________OP___ jtwc_sh SH061946 -10.9000 165.400 -1 -10.9000 165.400 TC -10.8895 165.430 2 21 106
1946013S10163 1946 3 SP MM NOT_NAMED 1946-01-13 09:00:00 TS -11.1627 166.406 main 392 373 P________PP___ SH061946 -11.1649 166.403 -1 -11.1649 166.403 TC -11.1584 166.414 2 19 105
1946013S10163 1946 3 SP MM NOT_NAMED 1946-01-13 12:00:00 TS -11.4000 167.300 main 377 371 O________OO___ jtwc_sh SH061946 -11.4000 167.300 -1 -11.4000 167.300 TC -11.4000 167.300 2 17 105
1946013S10163 1946 3 SP MM NOT_NAMED 1946-01-13 15:00:00 TS -11.6039 168.043 main 378 377 P________PP___ SH061946 -11.5995 168.030 -1 -11.5995 168.030 TC -11.6126 168.069 2 15 106
1946013S10163 1946 3 SP MM NOT_NAMED 1946-01-13 18:00:00 TS -11.8056 168.722 main 396 396 O________OP___ jtwc_sh SH061946 -11.8000 168.700 -1 -11.8000 168.700 TC -11.8167 168.767 2 14 107
1946013S10163 1946 3 SP MM NOT_NAMED 1946-01-13 21:00:00 TS -12.0306 169.428 main 417 415 P________PP___ SH061946 -12.0271 169.413 -1 -12.0271 169.413 TC -12.0376 169.457 2 15 109
1946013S10163 1946 3 SP MM NOT_NAMED 1946-01-14 00:00:00 TS -12.3000 170.200 main 451 451 O________OO___ jtwc_sh SH061946 -12.3000 170.200 -1 -12.3000 170.200 TC -12.3000 170.200 2 18 110
1946013S10163 1946 3 SP MM NOT_NAMED 1946-01-14 03:00:00 TS -12.6357 171.108 main 508 508 P________PP___ SH061946 -12.6275 171.120 -1 -12.6275 171.120 TC -12.6522 171.085 2 20 111
1946013S10163 1946 3 SP MM NOT_NAMED 1946-01-14 06:00:00 TS -13.0142 172.077 main 584 584 O________OP___ jtwc_sh SH061946 -13.0000 172.100 -1 -13.0000 172.100 TC -13.0425 172.032 2 20 113
1946013S10163 1946 3 SP MM NOT_NAMED 1946-01-14 09:00:00 TS -13.4169 173.038 main 646 565 P________PP___ SH061946 -13.4071 173.050 -1 -13.4071 173.050 TC -13.4364 173.013 2 20 113
1946013S10163 1946 3 SP MM NOT_NAMED 1946-01-14 12:00:00 TS -13.8000 174.000 main 558 471 O________OO___ jtwc_sh SH061946 -13.8000 174.000 -1 -13.8000 174.000 TC -13.8000 174.000 2 20 111
1946013S10163 1946 3 SP MM NOT_NAMED 1946-01-14 15:00:00 TS -14.1231 174.964 main 465 379 P________PP___ SH061946 -14.1296 174.950 -1 -14.1296 174.950 TC -14.1102 174.991 2 20 108
1946013S10163 1946 3 SP MM NOT_NAMED 1946-01-14 18:00:00 TS -14.3942 175.925 main 379 297 O________OP___ jtwc_sh SH061946 -14.4000 175.900 -1 -14.4000 175.900 TC -14.3826 175.975 2 19 105
1946013S10163 1946 3 SP MM NOT_NAMED 1946-01-14 21:00:00 TS -14.6194 176.889 main 290 225 P________PP___ SH061946 -14.6224 176.873 -1 -14.6224 176.873 TC -14.6135 176.922 2 19 103
1946013S10163 1946 3 SP MM NOT_NAMED 1946-01-15 00:00:00 TS -14.8000 177.800 main 225 173 O________OO___ jtwc_sh SH061946 -14.8000 177.800 -1 -14.8000 177.800 TC -14.8000 177.800 2 17 102
1946013S10163 1946 3 SP MM NOT_NAMED 1946-01-15 03:00:00 TS -14.9675 178.633 main 173 134 P________PP___ SH061946 -14.9723 178.653 -1 -14.9723 178.653 TC -14.9579 178.593 2 15 101
1946013S10163 1946 3 SP MM NOT_NAMED 1946-01-15 06:00:00 TS -15.0911 179.371 main 130 111 O________OP___ jtwc_sh SH061946 -15.1000 179.400 -1 -15.1000 179.400 TC -15.0732 179.313 2 13 98
1946013S10163 1946 3 SP MM NOT_NAMED 1946-01-15 09:00:00 TS -15.1654 180.012 main 112 112 P________PP___ SH061946 -15.1721 -179.970 -1 -15.1721 -179.970 TC -15.1520 179.977 2 12 95
1946013S10163 1946 3 SP MM NOT_NAMED 1946-01-15 12:00:00 TS -15.2000 180.600 main 134 134 O________OO___ jtwc_sh SH061946 -15.2000 -179.400 -1 -15.2000 180.600 TC -15.2000 -179.400 2 12 92
1946013S10163 1946 3 SP MM NOT_NAMED 1946-01-15 15:00:00 TS -15.2142 181.212 main 178 178 P________PP___ SH061946 -15.2074 -178.792 -1 -15.2074 -178.792 TC -15.2279 -178.781 2 12 90
1946013S10163 1946 3 SP MM NOT_NAMED 1946-01-15 18:00:00 TS -15.2097 181.801 main 232 232 O________OP___ jtwc_sh SH061946 -15.2000 -178.200 -1 -15.2000 181.800 TC -15.2290 -178.197 2 11 90
1946013S10163 1946 3 SP MM NOT_NAMED 1946-01-15 21:00:00 TS -15.2051 182.358 main 290 290 P________PP___ SH061946 -15.1998 -177.643 -1 -15.1998 -177.643 TC -15.2156 -177.640 2 11 89
1946013S10163 1946 3 SP MM NOT_NAMED 1946-01-16 00:00:00 TS -15.2000 182.900 main 340 340 O________OO___ jtwc_sh SH061946 -15.2000 -177.100 -1 -15.2000 182.900 TC -15.2000 -177.100 2 11 90
1946013S10163 1946 3 SP MM NOT_NAMED 1946-01-16 03:00:00 TS -15.1998 183.457 main 401 393 P________PP___ SH061946 -15.1999 -176.543 -1 -15.1999 -176.543 TC -15.1997 -176.544 2 11 90
1946013S10163 1946 3 SP MM NOT_NAMED 1946-01-16 06:00:00 TS -15.1999 183.998 main 393 347 O________OP___ jtwc_sh SH061946 -15.2000 -176.000 -1 -15.2000 184.000 TC -15.1997 -176.005 2 10 90
1946013S10163 1946 3 SP MM NOT_NAMED 1946-01-16 09:00:00 TS -15.1999 184.514 main 347 302 P________PP___ SH061946 -15.1999 -175.485 -1 -15.1999 -175.485 TC -15.1998 -175.488 2 10 90
1946013S10163 1946 3 SP MM NOT_NAMED 1946-01-16 12:00:00 TS -15.2000 185.000 main 302 266 O________OO___ jtwc_sh SH061946 -15.2000 -175.000 -1 -15.2000 185.000 TC -15.2000 -175.000 2 9 89
1946013S10163 1946 3 SP MM NOT_NAMED 1946-01-16 15:00:00 TS -15.1889 185.460 main 257 225 P________PP___ SH061946 -15.1999 -174.535 -1 -15.1999 -174.535 TC -15.1669 -174.550 2 9 89
1946013S10163 1946 3 SP MM NOT_NAMED 1946-01-16 18:00:00 TS -15.1797 185.891 main 225 196 O________OP___ jtwc_sh SH061946 -15.2000 -174.100 -1 -15.2000 185.900 TC -15.1392 -174.127 2 8 88
1946013S10163 1946 3 SP MM NOT_NAMED 1946-01-16 21:00:00 TS -15.1656 186.295 main 196 173 P________PP___ SH061946 -15.1773 -173.700 -1 -15.1773 -173.700 TC -15.1420 -173.715 2 8 91
1946013S10163 1946 3 SP MM NOT_NAMED 1946-01-17 00:00:00 TS -15.2000 186.700 main 173 165 O________OO___ jtwc_sh SH061946 -15.2000 -173.300 -1 -15.2000 186.700 TC -15.2000 -173.300 2 8 100
1946013S10163 1946 3 SP MM NOT_NAMED 1946-01-17 03:00:00 TS -15.3158 187.157 main 169 169 P________PP___ SH061946 -15.3125 -172.857 -1 -15.3125 -172.857 TC -15.3225 -172.813 2 9 109
1946013S10163 1946 3 SP MM NOT_NAMED 1946-01-17 06:00:00 TS -15.5010 187.625 main 190 190 O________OP___ jtwc_sh SH061946 -15.5000 -172.400 -1 -15.5000 187.600 TC -15.5030 -172.326 2 10 115
1946013S10163 1946 3 SP MM NOT_NAMED 1946-01-17 09:00:00 TS -15.7290 188.095 main 215 215 P________PP___ SH061946 -15.7276 -171.920 -1 -15.7276 -171.920 TC -15.7320 -171.875 2 10 121
1946013S10163 1946 3 SP MM NOT_NAMED 1946-01-17 12:00:00 TS -16.0000 188.500 main 257 257 O________OO___ jtwc_sh SH061946 -16.0000 -171.500 -1 -16.0000 188.500 TC -16.0000 -171.500 2 9 129
1946013S10163 1946 3 SP MM NOT_NAMED 1946-01-17 15:00:00 TS -16.2766 188.789 main 299 299 P________PP___ SH061946 -16.2849 -171.197 -1 -16.2849 -171.197 TC -16.2601 -171.237 2 8 142
1946013S10163 1946 3 SP MM NOT_NAMED 1946-01-17 18:00:00 TS -16.5865 188.983 main 338 338 O________OP___ jtwc_sh SH061946 -16.6000 -171.000 -1 -16.6000 189.000 TC -16.5594 -171.052 2 7 154
1946013S10163 1946 3 SP MM NOT_NAMED 1946-01-17 21:00:00 TS -16.9146 189.110 main 373 373 P________PP___ SH061946 -16.9199 -170.877 -1 -16.9199 -170.877 TC -16.9040 -170.915 2 7 164
1946013S10163 1946 3 SP MM NOT_NAMED 1946-01-18 00:00:00 TS -17.3000 189.200 main 419 419 O________OO___ jtwc_sh SH061946 -17.3000 -170.800 -1 -17.3000 189.200 TC -17.3000 -170.800 2 9 168
1946013S10163 1946 3 SP MM NOT_NAMED 1946-01-18 03:00:00 TS -17.7750 189.308 main 475 475 P________PP___ SH061946 -17.7775 -170.707 -1 -17.7775 -170.707 TC -17.7699 -170.661 2 10 168
1946013S10163 1946 3 SP MM NOT_NAMED 1946-01-18 06:00:00 TS -18.2950 189.422 main 531 531 O________OP___ jtwc_sh SH061946 -18.3000 -170.600 -1 -18.3000 189.400 TC -18.2849 -170.535 2 11 167
1946013S10163 1946 3 SP MM NOT_NAMED 1946-01-18 09:00:00 TS -18.8175 189.561 main 591 591 P________PP___ SH061946 -18.8225 -170.450 -1 -18.8225 -170.450 TC -18.8075 -170.417 2 10 165
1946013S10163 1946 3 SP MM NOT_NAMED 1946-01-18 12:00:00 TS -19.3000 189.700 main 647 647 O________OO___ jtwc_sh SH061946 -19.3000 -170.300 -1 -19.3000 189.700 TC -19.3000 -170.300 2 9 165
1946013S10163 1946 3 SP MM NOT_NAMED 1946-01-18 15:00:00 TS -19.6369 189.792 main 683 683 P________PP___ SH061946 -19.6650 -170.200 -1 -19.6650 -170.200 TC -19.5808 -170.224 2 7 165
1946013S10163 1946 3 SP MM NOT_NAMED 1946-01-18 18:00:00 TS -19.9491 189.886 main 718 718 O________OP___ jtwc_sh SH061946 -20.0000 -170.100 -1 -20.0000 189.900 TC -19.8472 -170.142 2 7 162
1946013S10163 1946 3 SP MM NOT_NAMED 1946-01-18 21:00:00 TS -20.2633 190.004 main 764 764 P________PP___ SH061946 -20.2874 -169.987 -1 -20.2874 -169.987 TC -20.2150 -170.013 2 9 161
1946013S10163 1946 3 SP MM NOT_NAMED 1946-01-19 00:00:00 TS -20.8000 190.200 main 823 823 O________OO___ jtwc_sh SH061946 -20.8000 -169.800 -1 -20.8000 190.200 TC -20.8000 -169.800 2 16 163
1946013S10163 1946 3 SP MM NOT_NAMED 1946-01-19 03:00:00 TS -21.7757 190.506 main 939 939 P________PP___ SH061946 -21.7725 -169.509 -1 -21.7725 -169.509 TC -21.7820 -169.462 2 23 163
1946013S10163 1946 3 SP MM NOT_NAMED 1946-01-19 06:00:00 TS -22.9928 190.923 main 1079 1079 O________OP___ jtwc_sh SH061946 -23.0000 -169.100 -1 -23.0000 190.900 TC -22.9784 -169.031 2 26 161
1946013S10163 1946 3 SP MM NOT_NAMED 1946-01-19 09:00:00 TS -24.2635 191.435 main 1233 1233 P________PP___ SH061946 -24.2651 -168.580 -1 -24.2651 -168.580 TC -24.2605 -168.533 2 27 159
1946013S10163 1946 3 SP MM NOT_NAMED 1946-01-19 12:00:00 TS -25.5000 192.000 main 1380 1380 O________OO___ jtwc_sh SH061946 -25.5000 -168.000 -1 -25.5000 192.000 TC -25.5000 -168.000 2 25 156
1946013S10163 1946 3 SP MM NOT_NAMED 1946-01-19 15:00:00 TS -26.5676 192.548 main 1512 1512 P________PP___ SH061946 -26.5522 -167.449 -1 -26.5522 -167.449 TC -26.5983 -167.458 2 23 154
1946013S10163 1946 3 SP MM NOT_NAMED 1946-01-19 18:00:00 TS -27.5233 193.096 main 1627 1627 O________OP___ jtwc_sh SH061946 -27.5000 -166.900 -1 -27.5000 193.100 TC -27.5698 -166.911 2 21 152
1946013S10163 1946 3 SP MM NOT_NAMED 1946-01-19 21:00:00 TS -28.4242 193.646 main 1734 1715 P________PP___ SH061946 -28.4080 -166.352 -1 -28.4080 -166.352 TC -28.4566 -166.359 2 20 151
1946013S10163 1946 3 SP MM NOT_NAMED 1946-01-20 00:00:00 TS -29.3000 194.200 main 1717 O________OO___ jtwc_sh SH061946 -29.3000 -165.800 -1 -29.3000 194.200 TC -29.3000 -165.800 2 20 151

Digital Typhoon Data and Search

About IBTrACS Database

This database is a web-friendly format of International Best Track Archive for Climate Stewardship (IBTrACS), a global best track data archive curated by NOAA dating back to 1842.

Updated: 2021-10-08